sensor_id;sensor_type;location;lat;lon;timestamp;temperature;humidity
64817;DHT22;69411;45.656;11.740;2023-04-19T00:00:41;12.00;65.70
64817;DHT22;69411;45.656;11.740;2023-04-19T00:03:08;11.90;65.40
64817;DHT22;69411;45.656;11.740;2023-04-19T00:05:35;12.00;65.70
64817;DHT22;69411;45.656;11.740;2023-04-19T00:08:05;12.00;65.80
64817;DHT22;69411;45.656;11.740;2023-04-19T00:10:31;12.00;65.40
64817;DHT22;69411;45.656;11.740;2023-04-19T00:12:58;12.00;65.60
64817;DHT22;69411;45.656;11.740;2023-04-19T00:15:24;12.00;65.70
64817;DHT22;69411;45.656;11.740;2023-04-19T00:17:50;12.00;65.80
64817;DHT22;69411;45.656;11.740;2023-04-19T00:20:16;12.00;65.50
64817;DHT22;69411;45.656;11.740;2023-04-19T00:22:42;12.10;65.60
64817;DHT22;69411;45.656;11.740;2023-04-19T00:25:08;12.10;65.90
64817;DHT22;69411;45.656;11.740;2023-04-19T00:27:34;12.10;65.80
64817;DHT22;69411;45.656;11.740;2023-04-19T00:30:00;12.10;65.90
64817;DHT22;69411;45.656;11.740;2023-04-19T00:32:26;12.10;65.80
64817;DHT22;69411;45.656;11.740;2023-04-19T00:34:52;12.10;65.90
64817;DHT22;69411;45.656;11.740;2023-04-19T00:37:18;12.10;65.90
64817;DHT22;69411;45.656;11.740;2023-04-19T00:39:45;12.10;66.00
64817;DHT22;69411;45.656;11.740;2023-04-19T00:42:12;12.20;66.10
64817;DHT22;69411;45.656;11.740;2023-04-19T00:44:38;12.20;65.90
64817;DHT22;69411;45.656;11.740;2023-04-19T00:47:04;12.20;66.00
64817;DHT22;69411;45.656;11.740;2023-04-19T00:49:30;12.10;66.40
64817;DHT22;69411;45.656;11.740;2023-04-19T00:51:56;12.20;66.40
64817;DHT22;69411;45.656;11.740;2023-04-19T00:54:22;12.20;66.30
64817;DHT22;69411;45.656;11.740;2023-04-19T00:56:48;12.20;66.80
64817;DHT22;69411;45.656;11.740;2023-04-19T00:59:16;12.20;66.40
64817;DHT22;69411;45.656;11.740;2023-04-19T01:01:43;12.20;66.50
64817;DHT22;69411;45.656;11.740;2023-04-19T01:04:09;12.20;66.40
64817;DHT22;69411;45.656;11.740;2023-04-19T01:06:35;12.30;66.40
64817;DHT22;69411;45.656;11.740;2023-04-19T01:09:03;12.20;66.50
64817;DHT22;69411;45.656;11.740;2023-04-19T01:11:29;12.20;66.50
64817;DHT22;69411;45.656;11.740;2023-04-19T01:13:55;12.20;66.90
64817;DHT22;69411;45.656;11.740;2023-04-19T01:16:26;12.20;66.90
64817;DHT22;69411;45.656;11.740;2023-04-19T01:18:53;12.20;66.90
64817;DHT22;69411;45.656;11.740;2023-04-19T01:21:19;12.20;66.80
64817;DHT22;69411;45.656;11.740;2023-04-19T01:23:47;12.20;66.90
64817;DHT22;69411;45.656;11.740;2023-04-19T01:26:13;12.20;66.90
64817;DHT22;69411;45.656;11.740;2023-04-19T01:28:39;12.20;67.00
64817;DHT22;69411;45.656;11.740;2023-04-19T01:31:05;12.20;66.90
64817;DHT22;69411;45.656;11.740;2023-04-19T01:33:31;12.20;67.00
64817;DHT22;69411;45.656;11.740;2023-04-19T01:35:57;12.20;67.00
64817;DHT22;69411;45.656;11.740;2023-04-19T01:38:22;12.20;66.90
64817;DHT22;69411;45.656;11.740;2023-04-19T01:40:48;12.20;66.80
64817;DHT22;69411;45.656;11.740;2023-04-19T01:43:16;12.20;66.90
64817;DHT22;69411;45.656;11.740;2023-04-19T01:45:42;12.20;67.00
64817;DHT22;69411;45.656;11.740;2023-04-19T01:48:08;12.20;67.40
64817;DHT22;69411;45.656;11.740;2023-04-19T01:50:34;12.20;67.00
64817;DHT22;69411;45.656;11.740;2023-04-19T01:53:00;12.20;67.50
64817;DHT22;69411;45.656;11.740;2023-04-19T01:55:26;12.30;67.90
64817;DHT22;69411;45.656;11.740;2023-04-19T01:57:52;12.20;67.60
64817;DHT22;69411;45.656;11.740;2023-04-19T02:00:19;12.30;67.50
64817;DHT22;69411;45.656;11.740;2023-04-19T02:02:46;12.30;67.60
64817;DHT22;69411;45.656;11.740;2023-04-19T02:05:12;12.30;67.60
64817;DHT22;69411;45.656;11.740;2023-04-19T02:07:38;12.20;67.50
64817;DHT22;69411;45.656;11.740;2023-04-19T02:10:04;12.20;67.50
64817;DHT22;69411;45.656;11.740;2023-04-19T02:12:32;12.20;67.50
64817;DHT22;69411;45.656;11.740;2023-04-19T02:14:59;12.20;67.60
64817;DHT22;69411;45.656;11.740;2023-04-19T02:17:26;12.20;67.70
64817;DHT22;69411;45.656;11.740;2023-04-19T02:19:53;12.20;67.70
64817;DHT22;69411;45.656;11.740;2023-04-19T02:22:19;12.20;67.80
64817;DHT22;69411;45.656;11.740;2023-04-19T02:24:46;12.20;68.00
64817;DHT22;69411;45.656;11.740;2023-04-19T02:27:12;12.20;67.90
64817;DHT22;69411;45.656;11.740;2023-04-19T02:29:38;12.20;68.00
64817;DHT22;69411;45.656;11.740;2023-04-19T02:32:05;12.30;67.90
64817;DHT22;69411;45.656;11.740;2023-04-19T02:34:32;12.20;68.00
64817;DHT22;69411;45.656;11.740;2023-04-19T02:36:58;12.30;67.90
64817;DHT22;69411;45.656;11.740;2023-04-19T02:39:23;12.30;67.90
64817;DHT22;69411;45.656;11.740;2023-04-19T02:41:49;12.30;67.90
64817;DHT22;69411;45.656;11.740;2023-04-19T02:44:15;12.30;67.90
64817;DHT22;69411;45.656;11.740;2023-04-19T02:46:47;12.30;67.90
64817;DHT22;69411;45.656;11.740;2023-04-19T02:49:14;12.30;67.80
64817;DHT22;69411;45.656;11.740;2023-04-19T02:51:40;12.20;68.10
64817;DHT22;69411;45.656;11.740;2023-04-19T02:54:05;12.30;68.20
64817;DHT22;69411;45.656;11.740;2023-04-19T02:56:31;12.30;67.90
64817;DHT22;69411;45.656;11.740;2023-04-19T02:59:00;12.30;67.90
64817;DHT22;69411;45.656;11.740;2023-04-19T03:01:27;12.30;68.10
64817;DHT22;69411;45.656;11.740;2023-04-19T03:03:52;12.30;68.50
64817;DHT22;69411;45.656;11.740;2023-04-19T03:06:18;12.30;68.30
64817;DHT22;69411;45.656;11.740;2023-04-19T03:08:44;12.30;68.50
64817;DHT22;69411;45.656;11.740;2023-04-19T03:11:11;12.20;69.20
64817;DHT22;69411;45.656;11.740;2023-04-19T03:13:37;12.20;68.90
64817;DHT22;69411;45.656;11.740;2023-04-19T03:16:05;12.20;68.90
64817;DHT22;69411;45.656;11.740;2023-04-19T03:18:31;12.20;68.80
64817;DHT22;69411;45.656;11.740;2023-04-19T03:20:57;12.20;68.90
64817;DHT22;69411;45.656;11.740;2023-04-19T03:23:23;12.20;69.10
64817;DHT22;69411;45.656;11.740;2023-04-19T03:25:49;12.20;68.60
64817;DHT22;69411;45.656;11.740;2023-04-19T03:28:15;12.20;68.90
64817;DHT22;69411;45.656;11.740;2023-04-19T03:30:41;12.20;69.00
64817;DHT22;69411;45.656;11.740;2023-04-19T03:33:07;12.20;69.30
64817;DHT22;69411;45.656;11.740;2023-04-19T03:35:33;12.20;69.60
64817;DHT22;69411;45.656;11.740;2023-04-19T03:37:59;12.10;69.70
64817;DHT22;69411;45.656;11.740;2023-04-19T03:40:25;12.10;69.30
64817;DHT22;69411;45.656;11.740;2023-04-19T03:42:51;12.10;69.40
64817;DHT22;69411;45.656;11.740;2023-04-19T03:45:17;12.10;69.10
64817;DHT22;69411;45.656;11.740;2023-04-19T03:47:43;12.10;69.10
64817;DHT22;69411;45.656;11.740;2023-04-19T03:50:09;12.10;68.80
64817;DHT22;69411;45.656;11.740;2023-04-19T03:52:35;12.20;69.00
64817;DHT22;69411;45.656;11.740;2023-04-19T03:55:01;12.20;69.00
64817;DHT22;69411;45.656;11.740;2023-04-19T03:57:27;12.20;69.10
64817;DHT22;69411;45.656;11.740;2023-04-19T03:59:52;12.20;69.10
64817;DHT22;69411;45.656;11.740;2023-04-19T04:02:18;12.20;69.00
64817;DHT22;69411;45.656;11.740;2023-04-19T04:04:44;12.20;69.10
64817;DHT22;69411;45.656;11.740;2023-04-19T04:07:10;12.20;69.40
64817;DHT22;69411;45.656;11.740;2023-04-19T04:09:36;12.20;69.20
64817;DHT22;69411;45.656;11.740;2023-04-19T04:12:02;12.10;69.30
64817;DHT22;69411;45.656;11.740;2023-04-19T04:14:28;12.20;69.30
64817;DHT22;69411;45.656;11.740;2023-04-19T04:16:54;12.10;69.20
64817;DHT22;69411;45.656;11.740;2023-04-19T04:19:20;12.20;69.50
64817;DHT22;69411;45.656;11.740;2023-04-19T04:21:46;12.20;69.50
64817;DHT22;69411;45.656;11.740;2023-04-19T04:24:14;12.20;69.50
64817;DHT22;69411;45.656;11.740;2023-04-19T04:26:40;12.20;69.40
64817;DHT22;69411;45.656;11.740;2023-04-19T04:29:07;12.20;69.50
64817;DHT22;69411;45.656;11.740;2023-04-19T04:31:33;12.20;69.50
64817;DHT22;69411;45.656;11.740;2023-04-19T04:34:01;12.20;69.70
64817;DHT22;69411;45.656;11.740;2023-04-19T04:36:27;12.20;69.60
64817;DHT22;69411;45.656;11.740;2023-04-19T04:38:54;12.20;69.70
64817;DHT22;69411;45.656;11.740;2023-04-19T04:41:22;12.20;69.60
64817;DHT22;69411;45.656;11.740;2023-04-19T04:43:47;12.20;69.50
64817;DHT22;69411;45.656;11.740;2023-04-19T04:46:16;12.20;69.40
64817;DHT22;69411;45.656;11.740;2023-04-19T04:48:42;12.20;69.20
64817;DHT22;69411;45.656;11.740;2023-04-19T04:51:08;12.20;69.30
64817;DHT22;69411;45.656;11.740;2023-04-19T04:53:34;12.20;69.00
64817;DHT22;69411;45.656;11.740;2023-04-19T04:56:00;12.30;69.10
64817;DHT22;69411;45.656;11.740;2023-04-19T04:58:26;12.30;69.10
64817;DHT22;69411;45.656;11.740;2023-04-19T05:00:52;12.30;69.20
64817;DHT22;69411;45.656;11.740;2023-04-19T05:03:18;12.40;69.10
64817;DHT22;69411;45.656;11.740;2023-04-19T05:05:44;12.40;69.00
64817;DHT22;69411;45.656;11.740;2023-04-19T05:08:10;12.40;69.10
64817;DHT22;69411;45.656;11.740;2023-04-19T05:10:36;12.50;69.00
64817;DHT22;69411;45.656;11.740;2023-04-19T05:13:02;12.50;68.50
64817;DHT22;69411;45.656;11.740;2023-04-19T05:15:28;12.60;68.80
64817;DHT22;69411;45.656;11.740;2023-04-19T05:17:53;12.60;68.90
64817;DHT22;69411;45.656;11.740;2023-04-19T05:20:20;12.60;68.90
64817;DHT22;69411;45.656;11.740;2023-04-19T05:22:45;12.70;68.80
64817;DHT22;69411;45.656;11.740;2023-04-19T05:25:11;12.70;68.60
64817;DHT22;69411;45.656;11.740;2023-04-19T05:27:38;12.80;68.60
64817;DHT22;69411;45.656;11.740;2023-04-19T05:30:04;12.80;69.10
64817;DHT22;69411;45.656;11.740;2023-04-19T05:32:31;12.80;68.90
64817;DHT22;69411;45.656;11.740;2023-04-19T05:34:57;12.90;68.80
64817;DHT22;69411;45.656;11.740;2023-04-19T05:37:23;12.90;68.80
64817;DHT22;69411;45.656;11.740;2023-04-19T05:39:49;13.00;68.50
64817;DHT22;69411;45.656;11.740;2023-04-19T05:42:15;13.10;68.50
64817;DHT22;69411;45.656;11.740;2023-04-19T05:44:41;13.30;68.40
64817;DHT22;69411;45.656;11.740;2023-04-19T05:47:06;13.50;68.30
64817;DHT22;69411;45.656;11.740;2023-04-19T05:49:33;13.80;67.90
64817;DHT22;69411;45.656;11.740;2023-04-19T05:51:59;14.10;67.50
64817;DHT22;69411;45.656;11.740;2023-04-19T05:54:25;14.60;67.00
64817;DHT22;69411;45.656;11.740;2023-04-19T05:56:52;15.10;66.00
64817;DHT22;69411;45.656;11.740;2023-04-19T05:59:18;15.60;65.30
64817;DHT22;69411;45.656;11.740;2023-04-19T06:01:44;16.10;64.10
64817;DHT22;69411;45.656;11.740;2023-04-19T06:04:11;16.40;62.90
64817;DHT22;69411;45.656;11.740;2023-04-19T06:06:37;16.40;62.30
64817;DHT22;69411;45.656;11.740;2023-04-19T06:09:02;16.40;62.00
64817;DHT22;69411;45.656;11.740;2023-04-19T06:11:29;16.50;61.80
64817;DHT22;69411;45.656;11.740;2023-04-19T06:13:55;16.50;61.70
64817;DHT22;69411;45.656;11.740;2023-04-19T06:16:21;16.60;61.50
64817;DHT22;69411;45.656;11.740;2023-04-19T06:18:47;16.60;61.60
64817;DHT22;69411;45.656;11.740;2023-04-19T06:21:13;16.60;61.60
64817;DHT22;69411;45.656;11.740;2023-04-19T06:23:39;16.60;61.50
64817;DHT22;69411;45.656;11.740;2023-04-19T06:26:05;16.60;61.40
64817;DHT22;69411;45.656;11.740;2023-04-19T06:28:31;16.70;61.50
64817;DHT22;69411;45.656;11.740;2023-04-19T06:30:57;16.70;61.70
64817;DHT22;69411;45.656;11.740;2023-04-19T06:33:23;16.80;61.50
64817;DHT22;69411;45.656;11.740;2023-04-19T06:35:49;16.80;61.50
64817;DHT22;69411;45.656;11.740;2023-04-19T06:38:15;16.90;61.40
64817;DHT22;69411;45.656;11.740;2023-04-19T06:40:41;16.90;61.40
64817;DHT22;69411;45.656;11.740;2023-04-19T06:43:07;16.90;61.40
64817;DHT22;69411;45.656;11.740;2023-04-19T06:45:33;16.90;61.40
64817;DHT22;69411;45.656;11.740;2023-04-19T06:47:59;16.80;61.40
64817;DHT22;69411;45.656;11.740;2023-04-19T06:50:25;16.70;61.50
64817;DHT22;69411;45.656;11.740;2023-04-19T06:52:52;16.70;61.40
64817;DHT22;69411;45.656;11.740;2023-04-19T06:55:18;16.70;61.30
64817;DHT22;69411;45.656;11.740;2023-04-19T06:57:44;16.70;61.30
64817;DHT22;69411;45.656;11.740;2023-04-19T07:00:10;16.60;61.20
64817;DHT22;69411;45.656;11.740;2023-04-19T07:02:36;16.60;61.10
64817;DHT22;69411;45.656;11.740;2023-04-19T07:05:02;16.70;60.90
64817;DHT22;69411;45.656;11.740;2023-04-19T07:07:28;16.70;60.70
64817;DHT22;69411;45.656;11.740;2023-04-19T07:09:54;16.70;60.60
64817;DHT22;69411;45.656;11.740;2023-04-19T07:12:20;16.80;60.40
64817;DHT22;69411;45.656;11.740;2023-04-19T07:14:46;16.90;60.30
64817;DHT22;69411;45.656;11.740;2023-04-19T07:17:12;16.90;60.20
64817;DHT22;69411;45.656;11.740;2023-04-19T07:19:38;17.00;60.00
64817;DHT22;69411;45.656;11.740;2023-04-19T07:22:04;17.00;59.90
64817;DHT22;69411;45.656;11.740;2023-04-19T07:24:30;17.10;59.90
64817;DHT22;69411;45.656;11.740;2023-04-19T07:26:56;17.20;59.80
64817;DHT22;69411;45.656;11.740;2023-04-19T07:29:22;17.20;59.80
64817;DHT22;69411;45.656;11.740;2023-04-19T07:31:48;17.30;59.70
64817;DHT22;69411;45.656;11.740;2023-04-19T07:34:14;17.50;59.60
64817;DHT22;69411;45.656;11.740;2023-04-19T07:36:40;17.70;59.40
64817;DHT22;69411;45.656;11.740;2023-04-19T07:39:06;17.90;59.00
64817;DHT22;69411;45.656;11.740;2023-04-19T07:41:32;17.90;58.70
64817;DHT22;69411;45.656;11.740;2023-04-19T07:43:58;18.00;58.60
64817;DHT22;69411;45.656;11.740;2023-04-19T07:46:24;18.00;58.50
64817;DHT22;69411;45.656;11.740;2023-04-19T07:48:50;18.10;58.20
64817;DHT22;69411;45.656;11.740;2023-04-19T07:51:16;18.00;58.10
64817;DHT22;69411;45.656;11.740;2023-04-19T07:53:42;18.00;58.10
64817;DHT22;69411;45.656;11.740;2023-04-19T07:56:09;18.00;58.20
64817;DHT22;69411;45.656;11.740;2023-04-19T07:58:37;18.00;58.20
64817;DHT22;69411;45.656;11.740;2023-04-19T08:01:04;18.00;58.30
64817;DHT22;69411;45.656;11.740;2023-04-19T08:03:31;18.00;58.40
64817;DHT22;69411;45.656;11.740;2023-04-19T08:06:00;18.00;58.40
64817;DHT22;69411;45.656;11.740;2023-04-19T08:08:27;18.10;58.70
64817;DHT22;69411;45.656;11.740;2023-04-19T08:10:53;18.10;58.90
64817;DHT22;69411;45.656;11.740;2023-04-19T08:13:22;18.10;59.10
64817;DHT22;69411;45.656;11.740;2023-04-19T08:15:48;18.20;59.30
64817;DHT22;69411;45.656;11.740;2023-04-19T08:18:14;18.20;59.40
64817;DHT22;69411;45.656;11.740;2023-04-19T08:20:40;18.30;59.70
64817;DHT22;69411;45.656;11.740;2023-04-19T08:23:09;18.50;59.60
64817;DHT22;69411;45.656;11.740;2023-04-19T08:25:35;18.50;59.60
64817;DHT22;69411;45.656;11.740;2023-04-19T08:28:01;18.70;59.60
64817;DHT22;69411;45.656;11.740;2023-04-19T08:30:27;18.80;59.50
64817;DHT22;69411;45.656;11.740;2023-04-19T08:32:53;18.90;59.40
64817;DHT22;69411;45.656;11.740;2023-04-19T08:35:19;19.00;59.40
64817;DHT22;69411;45.656;11.740;2023-04-19T08:37:46;19.20;59.10
64817;DHT22;69411;45.656;11.740;2023-04-19T08:40:13;19.40;58.80
64817;DHT22;69411;45.656;11.740;2023-04-19T08:42:39;19.70;58.30
64817;DHT22;69411;45.656;11.740;2023-04-19T08:45:06;19.90;57.80
64817;DHT22;69411;45.656;11.740;2023-04-19T08:47:34;20.10;57.40
64817;DHT22;69411;45.656;11.740;2023-04-19T08:50:02;20.40;57.10
64817;DHT22;69411;45.656;11.740;2023-04-19T08:52:29;20.60;56.60
64817;DHT22;69411;45.656;11.740;2023-04-19T08:54:55;20.80;56.30
64817;DHT22;69411;45.656;11.740;2023-04-19T08:57:21;20.80;56.00
64817;DHT22;69411;45.656;11.740;2023-04-19T08:59:47;20.70;56.10
64817;DHT22;69411;45.656;11.740;2023-04-19T09:02:16;20.60;56.30
64817;DHT22;69411;45.656;11.740;2023-04-19T09:04:42;20.50;56.30
64817;DHT22;69411;45.656;11.740;2023-04-19T09:07:25;20.50;56.30
64817;DHT22;69411;45.656;11.740;2023-04-19T09:10:07;20.70;56.40
64817;DHT22;69411;45.656;11.740;2023-04-19T09:12:35;20.80;55.90
64817;DHT22;69411;45.656;11.740;2023-04-19T09:15:02;20.90;55.80
64817;DHT22;69411;45.656;11.740;2023-04-19T09:17:30;21.10;55.50
64817;DHT22;69411;45.656;11.740;2023-04-19T09:19:57;21.40;55.20
64817;DHT22;69411;45.656;11.740;2023-04-19T09:22:23;21.70;54.80
64817;DHT22;69411;45.656;11.740;2023-04-19T09:24:49;21.90;54.30
64817;DHT22;69411;45.656;11.740;2023-04-19T09:30:02;22.00;53.00
64817;DHT22;69411;45.656;11.740;2023-04-19T09:32:40;22.00;52.90
64817;DHT22;69411;45.656;11.740;2023-04-19T09:35:10;21.90;52.90
64817;DHT22;69411;45.656;11.740;2023-04-19T09:37:36;21.90;52.70
64817;DHT22;69411;45.656;11.740;2023-04-19T09:40:23;21.90;52.70
64817;DHT22;69411;45.656;11.740;2023-04-19T09:42:49;21.80;52.40
64817;DHT22;69411;45.656;11.740;2023-04-19T09:45:15;21.70;52.40
64817;DHT22;69411;45.656;11.740;2023-04-19T09:47:41;21.70;52.40
64817;DHT22;69411;45.656;11.740;2023-04-19T09:50:08;21.60;52.10
64817;DHT22;69411;45.656;11.740;2023-04-19T09:52:35;21.50;51.70
64817;DHT22;69411;45.656;11.740;2023-04-19T09:55:05;21.40;51.70
64817;DHT22;69411;45.656;11.740;2023-04-19T09:57:32;21.40;51.70
64817;DHT22;69411;45.656;11.740;2023-04-19T09:59:59;21.30;51.60
64817;DHT22;69411;45.656;11.740;2023-04-19T10:02:30;21.20;51.70
64817;DHT22;69411;45.656;11.740;2023-04-19T10:04:59;21.30;51.70
64817;DHT22;69411;45.656;11.740;2023-04-19T10:07:26;21.40;51.80
64817;DHT22;69411;45.656;11.740;2023-04-19T10:09:57;21.40;51.80
64817;DHT22;69411;45.656;11.740;2023-04-19T10:12:24;21.40;51.60
64817;DHT22;69411;45.656;11.740;2023-04-19T10:14:55;21.50;51.50
64817;DHT22;69411;45.656;11.740;2023-04-19T10:17:22;21.50;51.40
64817;DHT22;69411;45.656;11.740;2023-04-19T10:19:54;21.50;51.30
64817;DHT22;69411;45.656;11.740;2023-04-19T10:22:22;21.40;51.40
64817;DHT22;69411;45.656;11.740;2023-04-19T10:25:07;21.40;51.40
64817;DHT22;69411;45.656;11.740;2023-04-19T10:27:34;21.50;51.40
64817;DHT22;69411;45.656;11.740;2023-04-19T10:30:01;21.50;51.40
64817;DHT22;69411;45.656;11.740;2023-04-19T10:32:40;21.50;51.20
64817;DHT22;69411;45.656;11.740;2023-04-19T10:35:16;21.50;51.00
64817;DHT22;69411;45.656;11.740;2023-04-19T10:38:02;21.60;50.90
64817;DHT22;69411;45.656;11.740;2023-04-19T10:43:16;21.60;50.80
64817;DHT22;69411;45.656;11.740;2023-04-19T10:45:43;21.50;50.50
64817;DHT22;69411;45.656;11.740;2023-04-19T10:51:14;21.40;50.60
64817;DHT22;69411;45.656;11.740;2023-04-19T10:53:52;21.40;50.60
64817;DHT22;69411;45.656;11.740;2023-04-19T11:01:37;21.10;49.50
64817;DHT22;69411;45.656;11.740;2023-04-19T11:09:36;20.90;50.20
64817;DHT22;69411;45.656;11.740;2023-04-19T11:12:05;20.80;50.20
64817;DHT22;69411;45.656;11.740;2023-04-19T11:14:36;20.80;50.30
64817;DHT22;69411;45.656;11.740;2023-04-19T11:17:31;20.80;50.10
64817;DHT22;69411;45.656;11.740;2023-04-19T11:19:57;20.70;50.30
64817;DHT22;69411;45.656;11.740;2023-04-19T11:22:34;20.70;50.40
64817;DHT22;69411;45.656;11.740;2023-04-19T11:25:11;20.80;50.30
64817;DHT22;69411;45.656;11.740;2023-04-19T11:27:39;20.70;50.20
64817;DHT22;69411;45.656;11.740;2023-04-19T11:30:10;20.70;50.30
64817;DHT22;69411;45.656;11.740;2023-04-19T11:32:37;20.70;50.40
64817;DHT22;69411;45.656;11.740;2023-04-19T11:35:07;20.80;50.50
64817;DHT22;69411;45.656;11.740;2023-04-19T11:37:34;20.80;50.40
64817;DHT22;69411;45.656;11.740;2023-04-19T11:40:01;20.80;50.40
64817;DHT22;69411;45.656;11.740;2023-04-19T11:42:28;20.80;50.50
64817;DHT22;69411;45.656;11.740;2023-04-19T11:44:54;20.80;50.50
64817;DHT22;69411;45.656;11.740;2023-04-19T11:47:22;20.90;50.40
64817;DHT22;69411;45.656;11.740;2023-04-19T11:49:48;20.80;50.10
64817;DHT22;69411;45.656;11.740;2023-04-19T11:52:21;20.80;50.00
64817;DHT22;69411;45.656;11.740;2023-04-19T11:54:47;20.90;50.00
64817;DHT22;69411;45.656;11.740;2023-04-19T11:57:13;20.90;49.90
64817;DHT22;69411;45.656;11.740;2023-04-19T11:59:38;20.90;50.00
64817;DHT22;69411;45.656;11.740;2023-04-19T12:02:24;20.90;50.00
64817;DHT22;69411;45.656;11.740;2023-04-19T12:04:51;21.20;50.00
64817;DHT22;69411;45.656;11.740;2023-04-19T12:07:16;21.40;49.50
64817;DHT22;69411;45.656;11.740;2023-04-19T12:09:42;21.60;49.20
64817;DHT22;69411;45.656;11.740;2023-04-19T12:12:08;21.80;48.90
64817;DHT22;69411;45.656;11.740;2023-04-19T12:14:34;21.90;48.40
64817;DHT22;69411;45.656;11.740;2023-04-19T12:17:11;22.00;48.10
64817;DHT22;69411;45.656;11.740;2023-04-19T12:19:46;22.10;47.70
64817;DHT22;69411;45.656;11.740;2023-04-19T12:22:15;22.10;47.60
64817;DHT22;69411;45.656;11.740;2023-04-19T12:24:41;22.10;47.70
64817;DHT22;69411;45.656;11.740;2023-04-19T12:27:08;22.10;47.60
64817;DHT22;69411;45.656;11.740;2023-04-19T12:29:34;22.10;47.60
64817;DHT22;69411;45.656;11.740;2023-04-19T12:32:02;22.00;47.20
64817;DHT22;69411;45.656;11.740;2023-04-19T12:34:28;22.00;47.20
64817;DHT22;69411;45.656;11.740;2023-04-19T12:36:55;22.00;47.30
64817;DHT22;69411;45.656;11.740;2023-04-19T12:39:20;21.90;47.20
64817;DHT22;69411;45.656;11.740;2023-04-19T12:41:46;21.90;47.20
64817;DHT22;69411;45.656;11.740;2023-04-19T12:44:17;21.90;47.10
64817;DHT22;69411;45.656;11.740;2023-04-19T12:46:42;21.90;47.00
64817;DHT22;69411;45.656;11.740;2023-04-19T12:49:08;21.80;47.00
64817;DHT22;69411;45.656;11.740;2023-04-19T12:51:34;21.80;47.20
64817;DHT22;69411;45.656;11.740;2023-04-19T12:54:00;21.90;47.00
64817;DHT22;69411;45.656;11.740;2023-04-19T12:56:27;21.80;47.10
64817;DHT22;69411;45.656;11.740;2023-04-19T12:58:53;21.80;47.10
64817;DHT22;69411;45.656;11.740;2023-04-19T13:01:19;21.70;47.20
64817;DHT22;69411;45.656;11.740;2023-04-19T13:03:45;21.70;47.10
64817;DHT22;69411;45.656;11.740;2023-04-19T13:06:10;21.70;47.10
64817;DHT22;69411;45.656;11.740;2023-04-19T13:08:39;21.70;47.00
64817;DHT22;69411;45.656;11.740;2023-04-19T13:11:06;21.60;47.00
64817;DHT22;69411;45.656;11.740;2023-04-19T13:13:33;21.60;47.20
64817;DHT22;69411;45.656;11.740;2023-04-19T13:15:59;21.70;47.40
64817;DHT22;69411;45.656;11.740;2023-04-19T13:18:25;21.70;47.50
64817;DHT22;69411;45.656;11.740;2023-04-19T13:20:51;21.70;47.50
64817;DHT22;69411;45.656;11.740;2023-04-19T13:23:18;21.70;47.60
64817;DHT22;69411;45.656;11.740;2023-04-19T13:25:45;21.70;47.60
64817;DHT22;69411;45.656;11.740;2023-04-19T13:28:11;21.70;47.70
64817;DHT22;69411;45.656;11.740;2023-04-19T13:30:36;21.70;47.80
64817;DHT22;69411;45.656;11.740;2023-04-19T13:33:02;21.70;47.90
64817;DHT22;69411;45.656;11.740;2023-04-19T13:35:29;21.80;47.90
64817;DHT22;69411;45.656;11.740;2023-04-19T13:37:55;21.70;47.90
64817;DHT22;69411;45.656;11.740;2023-04-19T13:40:21;21.70;48.00
64817;DHT22;69411;45.656;11.740;2023-04-19T13:42:47;21.70;48.30
64817;DHT22;69411;45.656;11.740;2023-04-19T13:45:13;21.70;48.30
64817;DHT22;69411;45.656;11.740;2023-04-19T13:47:39;21.80;47.90
64817;DHT22;69411;45.656;11.740;2023-04-19T13:50:05;21.80;47.50
64817;DHT22;69411;45.656;11.740;2023-04-19T13:52:31;21.80;47.80
64817;DHT22;69411;45.656;11.740;2023-04-19T13:54:57;21.90;47.90
64817;DHT22;69411;45.656;11.740;2023-04-19T13:57:23;21.90;47.90
64817;DHT22;69411;45.656;11.740;2023-04-19T13:59:49;22.00;47.90
64817;DHT22;69411;45.656;11.740;2023-04-19T14:02:15;22.10;47.80
64817;DHT22;69411;45.656;11.740;2023-04-19T14:04:41;22.10;47.70
64817;DHT22;69411;45.656;11.740;2023-04-19T14:07:07;22.00;47.50
64817;DHT22;69411;45.656;11.740;2023-04-19T14:09:33;21.90;47.50
64817;DHT22;69411;45.656;11.740;2023-04-19T14:11:59;21.90;47.40
64817;DHT22;69411;45.656;11.740;2023-04-19T14:14:25;21.70;47.40
64817;DHT22;69411;45.656;11.740;2023-04-19T14:16:51;21.60;47.60
64817;DHT22;69411;45.656;11.740;2023-04-19T14:19:16;21.40;47.80
64817;DHT22;69411;45.656;11.740;2023-04-19T14:21:42;21.40;48.10
64817;DHT22;69411;45.656;11.740;2023-04-19T14:24:08;21.20;48.20
64817;DHT22;69411;45.656;11.740;2023-04-19T14:26:34;21.00;48.40
64817;DHT22;69411;45.656;11.740;2023-04-19T14:29:00;20.90;48.70
64817;DHT22;69411;45.656;11.740;2023-04-19T14:31:26;20.70;49.20
64817;DHT22;69411;45.656;11.740;2023-04-19T14:33:52;20.50;49.90
64817;DHT22;69411;45.656;11.740;2023-04-19T14:36:18;20.30;50.60
64817;DHT22;69411;45.656;11.740;2023-04-19T14:38:44;20.20;51.20
64817;DHT22;69411;45.656;11.740;2023-04-19T14:41:10;20.10;51.90
64817;DHT22;69411;45.656;11.740;2023-04-19T14:43:36;19.90;52.70
64817;DHT22;69411;45.656;11.740;2023-04-19T14:46:02;19.70;53.40
64817;DHT22;69411;45.656;11.740;2023-04-19T14:48:28;19.40;53.90
64817;DHT22;69411;45.656;11.740;2023-04-19T14:50:54;19.30;54.50
64817;DHT22;69411;45.656;11.740;2023-04-19T14:53:20;19.00;55.20
64817;DHT22;69411;45.656;11.740;2023-04-19T14:55:46;18.70;55.70
64817;DHT22;69411;45.656;11.740;2023-04-19T14:58:12;18.40;55.90
64817;DHT22;69411;45.656;11.740;2023-04-19T15:00:38;18.10;56.00
64817;DHT22;69411;45.656;11.740;2023-04-19T15:03:04;17.90;56.10
64817;DHT22;69411;45.656;11.740;2023-04-19T15:05:33;17.70;56.80
64817;DHT22;69411;45.656;11.740;2023-04-19T15:08:00;17.50;57.40
64817;DHT22;69411;45.656;11.740;2023-04-19T15:10:26;17.40;58.30
64817;DHT22;69411;45.656;11.740;2023-04-19T15:12:52;17.40;58.80
64817;DHT22;69411;45.656;11.740;2023-04-19T15:15:18;17.30;59.30
64817;DHT22;69411;45.656;11.740;2023-04-19T15:17:44;17.30;59.60
64817;DHT22;69411;45.656;11.740;2023-04-19T15:20:10;17.20;59.80
64817;DHT22;69411;45.656;11.740;2023-04-19T15:22:35;17.20;60.20
64817;DHT22;69411;45.656;11.740;2023-04-19T15:25:01;17.20;60.50
64817;DHT22;69411;45.656;11.740;2023-04-19T15:27:27;17.10;61.10
64817;DHT22;69411;45.656;11.740;2023-04-19T15:29:54;17.00;61.10
64817;DHT22;69411;45.656;11.740;2023-04-19T15:32:20;17.00;61.20